Sainte-Henedine, Canada
Current Conditions -  °F | °C
As of 10:00 AM on Saturday 22 Nov 2014 (Local Time) from CYQB Reporting Station
Light Snow Light Snow  
Wind Chill: 16°   Ceiling: 2200
Heat Index: 16°   Visibility: 7mi
Dew Point: 10°   Wind: 2mph
Humidity: 79%   Direction: NA
Pressure: 29.99"   Gusts: NA
Location:  46.57°N, 70.98°W
Report Text: CYQB 221500Z VRB02KT 7SM -SN OVC022 M09/M12 A2999 RMK SC8 VIS HIER S PRESFR SLP163
Loading
Personal Weather Stations






























Interactive Weather Map New forecast layout! Learn more

10-Day Weather Forecast

Advertisements
Track Severe Weather on mobile